Time;durP1;ratioP1;P1;durP2;ratioP2;P2;SDS_P1;SDS_P2;PMS_P1;PMS_P2;Temp;Humidity;BMP_temperature;BMP_pressure;BME280_temperature;BME280_humidity;BME280_pressure;Samples;Min_cycle;Max_cycle;Signal;HPM_P1;HPM_P2
2022/01/11 00:01:30;;;;;;;;;23.67;21.00;;;;;7.95;61.72;102554.75;5016026;28;45842;-85
2022/01/11 00:03:56;;;;;;;;;24.67;22.67;;;;;8.28;61.91;102628.13;5016153;28;45286;-85
2022/01/11 00:06:37;;;;;;;;;19.00;15.67;;;;;8.31;61.73;102625.47;5018024;28;45248;-86
2022/01/11 00:09:08;;;;;;;;;26.25;23.75;;;;;8.21;61.46;102594.50;5017780;28;46653;-85
2022/01/11 00:11:35;;;;;;;;;24.67;23.00;;;;;8.23;61.76;102593.59;5015805;28;45456;-85
2022/01/11 00:14:01;;;;;;;;;26.67;22.33;;;;;8.43;61.43;102629.88;5016246;28;45440;-85
2022/01/11 00:16:26;;;;;;;;;25.67;23.67;;;;;8.18;61.77;102582.13;5017606;28;45404;-85
2022/01/11 00:18:52;;;;;;;;;28.33;22.67;;;;;8.25;61.77;102606.88;5017220;28;45420;-85
2022/01/11 00:21:18;;;;;;;;;26.00;22.00;;;;;8.35;61.38;102613.91;5016303;28;45357;-85
2022/01/11 00:26:09;;;;;;;;;28.00;25.33;;;;;8.27;61.31;102596.25;5017404;28;45490;-85
2022/01/11 00:28:34;;;;;;;;;29.67;21.33;;;;;7.82;61.60;102524.75;5017057;28;45402;-86
2022/01/11 00:31:02;;;;;;;;;22.67;21.67;;;;;8.00;61.82;102555.63;5017362;28;45379;-86
2022/01/11 00:33:37;;;;;;;;;26.00;26.00;;;;;8.18;61.39;102595.41;5016108;28;45442;-85
2022/01/11 00:36:03;;;;;;;;;29.33;23.33;;;;;8.42;61.54;102633.41;5016419;28;45414;-85
2022/01/11 00:38:32;;;;;;;;;22.00;19.67;;;;;8.41;62.07;102635.19;5017057;28;46390;-86
2022/01/11 00:41:06;;;;;;;;;24.33;21.33;;;;;7.72;61.86;102526.50;5015741;28;45470;-85
2022/01/11 00:43:33;;;;;;;;;27.33;20.33;;;;;8.07;61.61;102578.59;5015053;28;45416;-85
2022/01/11 00:45:59;;;;;;;;;22.67;21.33;;;;;7.64;61.55;102503.56;5017361;28;45552;-86
2022/01/11 00:48:25;;;;;;;;;21.67;20.00;;;;;8.14;61.54;102588.31;5015579;28;48619;-85
2022/01/11 00:50:51;;;;;;;;;12.67;12.00;;;;;8.12;61.90;102592.75;5017092;28;45257;-85
2022/01/11 00:53:18;;;;;;;;;20.67;19.33;;;;;8.38;61.90;102631.63;5017398;28;45503;-85
2022/01/11 00:55:45;;;;;;;;;22.67;20.33;;;;;8.44;62.12;102623.66;5015600;28;45478;-85
2022/01/11 00:58:10;;;;;;;;;23.33;22.33;;;;;8.44;61.70;102636.94;5015318;28;46635;-85
2022/01/11 01:00:38;;;;;;;;;22.00;21.67;;;;;8.11;61.75;102592.78;5016626;28;45395;-85
2022/01/11 01:03:04;;;;;;;;;22.75;22.75;;;;;8.46;61.83;102643.16;5017279;28;45344;-85
2022/01/11 01:05:30;;;;;;;;;26.00;22.00;;;;;8.44;61.87;102631.63;5017128;28;45488;-85
2022/01/11 01:07:55;;;;;;;;;22.67;21.33;;;;;8.05;62.05;102569.75;5016715;28;46179;-85
2022/01/11 01:10:34;;;;;;;;;23.00;21.33;;;;;8.21;61.83;102591.84;5017530;28;45597;-85
2022/01/11 01:13:00;;;;;;;;;28.00;22.00;;;;;8.36;61.62;102614.81;5019222;28;45436;-85
2022/01/11 01:15:27;;;;;;;;;26.00;20.33;;;;;8.31;61.94;102611.28;5019315;28;45527;-86
2022/01/11 01:17:53;;;;;;;;;23.67;20.67;;;;;8.14;61.29;102603.38;5020238;28;45557;-85
2022/01/11 01:20:20;;;;;;;;;22.33;22.33;;;;;8.39;62.02;102639.59;5019717;28;45315;-85
2022/01/11 01:22:50;;;;;;;;;30.67;24.00;;;;;8.19;61.67;102617.53;5019141;28;45825;-85
2022/01/11 01:25:15;;;;;;;;;24.00;20.00;;;;;8.27;61.50;102641.41;5020159;28;45346;-86
2022/01/11 01:27:41;;;;;;;;;30.00;24.67;;;;;7.90;61.48;102591.94;5019099;28;45426;-85
2022/01/11 01:30:07;;;;;;;;;17.00;14.33;;;;;8.26;61.46;102651.13;5019927;28;45490;-85
2022/01/11 01:32:32;;;;;;;;;26.67;22.00;;;;;7.78;61.83;102566.31;5019962;28;45442;-85
2022/01/11 01:35:03;;;;;;;;;20.67;17.67;;;;;8.16;61.49;102639.66;5020320;28;45451;-85
2022/01/11 01:37:28;;;;;;;;;25.67;20.00;;;;;8.09;61.85;102621.09;5035015;28;47627;-85
2022/01/11 01:39:54;;;;;;;;;22.00;21.33;;;;;7.81;62.00;102579.56;5018568;28;45504;-85
2022/01/11 01:42:25;;;;;;;;;19.67;18.67;;;;;7.86;62.02;102579.56;5018870;28;45346;-85
2022/01/11 01:44:51;;;;;;;;;20.00;19.00;;;;;8.26;61.65;102648.47;5018623;28;45183;-85
2022/01/11 01:47:16;;;;;;;;;19.67;18.00;;;;;8.32;61.52;102675.03;5018592;28;48079;-86
2022/01/11 01:49:42;;;;;;;;;23.00;18.67;;;;;7.90;61.76;102612.31;5019556;28;45244;-85
2022/01/11 01:52:07;;;;;;;;;19.33;19.33;;;;;7.70;61.54;102584.06;5019167;28;45522;-85
2022/01/11 01:54:33;;;;;;;;;21.67;19.00;;;;;7.68;61.81;102598.19;5019724;28;45533;-85
2022/01/11 01:56:59;;;;;;;;;19.25;17.75;;;;;7.51;62.01;102577.00;5019472;28;45496;-86
2022/01/11 01:59:24;;;;;;;;;26.00;20.67;;;;;7.37;62.08;102558.44;5018635;28;45882;-85
2022/01/11 02:01:50;;;;;;;;;19.00;19.00;;;;;7.76;62.03;102617.66;5019556;28;45403;-85
2022/01/11 02:04:18;;;;;;;;;18.67;15.33;;;;;7.53;62.34;102583.19;5020015;28;45422;-85
2022/01/11 02:06:46;;;;;;;;;20.67;19.33;;;;;7.42;62.24;102564.59;5017622;28;48018;-85
2022/01/11 02:09:15;;;;;;;;;23.33;18.00;;;;;7.59;62.33;102576.09;5018410;28;45266;-85
2022/01/11 02:11:40;;;;;;;;;21.00;18.67;;;;;8.26;62.56;102690.97;5019316;28;45379;-85
2022/01/11 02:14:06;;;;;;;;;20.50;19.50;;;;;7.88;62.41;102624.69;5019834;28;45526;-85
2022/01/11 02:16:31;;;;;;;;;24.75;20.25;;;;;7.76;62.09;102601.72;5019316;28;46568;-85
2022/01/11 02:18:57;;;;;;;;;27.50;22.75;;;;;7.45;62.10;102542.53;5017494;28;45883;-85
2022/01/11 02:21:23;;;;;;;;;25.33;21.33;;;;;8.32;61.95;102679.47;5018288;28;45349;-86
2022/01/11 02:23:51;;;;;;;;;23.33;20.67;;;;;7.57;61.81;102561.06;5017948;28;45675;-86
2022/01/11 02:26:17;;;;;;;;;28.67;24.33;;;;;7.49;61.92;102546.91;5018099;28;47233;-86
2022/01/11 02:28:43;;;;;;;;;26.67;24.00;;;;;8.33;61.82;102694.50;5017475;28;45480;-85
2022/01/11 02:31:12;;;;;;;;;23.33;21.33;;;;;8.34;61.67;102696.31;5019422;28;45319;-85
2022/01/11 02:33:43;;;;;;;;;25.67;23.33;;;;;8.24;61.88;102680.38;5019500;28;45515;-85
2022/01/11 02:36:18;;;;;;;;;22.67;21.33;;;;;8.34;61.28;102705.16;4998929;28;46167;-85
2022/01/11 02:38:44;;;;;;;;;30.00;26.33;;;;;7.94;61.56;102633.53;4997186;28;45442;-85
2022/01/11 02:41:09;;;;;;;;;24.00;22.33;;;;;7.45;61.28;102545.19;4998145;28;45361;-85
2022/01/11 02:43:40;;;;;;;;;29.25;21.00;;;;;7.83;61.67;102630.03;4998199;28;45299;-85
2022/01/11 02:46:05;;;;;;;;;30.33;26.67;;;;;7.74;61.92;102615.00;4997740;28;47567;-85
2022/01/11 02:48:31;;;;;;;;;30.00;26.50;;;;;7.97;61.82;102654.75;5008766;28;46005;-85
2022/01/11 02:50:56;;;;;;;;;33.00;31.50;;;;;7.77;61.53;102617.66;5003722;28;45498;-85
2022/01/11 02:53:21;;;;;;;;;28.25;28.00;;;;;7.47;61.47;102573.47;4999458;28;45540;-85
2022/01/11 02:55:47;;;;;;;;;30.00;29.50;;;;;8.18;61.35;102696.31;4997630;28;46413;-85
2022/01/11 02:58:13;;;;;;;;;29.25;27.00;;;;;8.19;61.78;102700.78;4997866;28;45476;-86
2022/01/11 03:00:39;;;;;;;;;34.25;27.75;;;;;7.66;61.62;102621.22;4999024;28;45416;-86
2022/01/11 03:03:25;;;;;;;;;30.50;29.00;;;;;7.73;62.28;102644.22;5001924;28;45418;-86
2022/01/11 03:05:53;;;;;;;;;26.75;25.25;;;;;8.04;62.45;102699.00;5018160;28;45488;-85
2022/01/11 03:08:20;;;;;;;;;34.25;28.00;;;;;8.06;62.22;102709.63;5018989;28;45367;-85
2022/01/11 03:10:48;;;;;;;;;27.33;23.33;;;;;7.48;62.03;102596.44;5018350;28;45375;-85
2022/01/11 03:13:14;;;;;;;;;27.25;22.50;;;;;7.94;62.14;102681.34;5017435;28;45593;-85
2022/01/11 03:15:40;;;;;;;;;32.25;28.00;;;;;8.06;61.56;102706.97;5018032;28;45413;-85
2022/01/11 03:18:07;;;;;;;;;35.75;28.75;;;;;7.30;61.39;102575.25;5018155;28;45478;-85
2022/01/11 03:20:34;;;;;;;;;32.50;26.00;;;;;7.72;61.37;102659.22;5018454;28;45445;-85
2022/01/11 03:23:00;;;;;;;;;32.75;29.25;;;;;7.55;62.04;102621.22;5018350;28;45681;-85
2022/01/11 03:25:25;;;;;;;;;33.75;27.25;;;;;7.81;61.81;102666.31;5017970;28;46287;-85
2022/01/11 03:27:51;;;;;;;;;26.50;21.50;;;;;8.11;61.95;102712.28;5017774;28;45389;-85
2022/01/11 03:30:17;;;;;;;;;31.25;27.00;;;;;7.96;61.86;102697.25;5017185;28;45414;-85
2022/01/11 03:32:43;;;;;;;;;28.00;25.75;;;;;7.70;62.16;102663.69;5018433;28;45332;-85
2022/01/11 03:35:10;;;;;;;;;26.00;24.33;;;;;8.05;61.58;102731.75;5017656;28;45431;-85
2022/01/11 03:37:37;;;;;;;;;25.67;24.00;;;;;7.78;61.37;102687.56;5018095;28;45330;-85
2022/01/11 03:40:06;;;;;;;;;32.75;26.50;;;;;8.03;61.74;102728.25;5018099;28;45270;-85
2022/01/11 03:42:31;;;;;;;;;31.33;27.67;;;;;7.79;61.15;102695.50;5017208;28;45385;-85
2022/01/11 03:44:56;;;;;;;;;30.00;23.33;;;;;7.70;61.39;102674.28;5016046;28;47466;-85
2022/01/11 03:47:22;;;;;;;;;31.75;24.25;;;;;7.54;61.47;102651.31;5018013;28;45511;-86
2022/01/11 03:49:47;;;;;;;;;31.67;25.67;;;;;7.59;61.05;102663.66;5017890;28;45332;-85
2022/01/11 03:52:13;;;;;;;;;26.00;23.00;;;;;7.34;60.68;102620.34;5018422;28;45344;-85
2022/01/11 03:57:23;;;;;;;;;30.67;23.67;;;;;7.48;60.97;102657.47;5017932;28;45522;-85
2022/01/11 03:59:49;;;;;;;;;29.00;22.67;;;;;7.74;60.82;102707.88;5017814;28;45447;-85
2022/01/11 04:02:15;;;;;;;;;29.33;26.67;;;;;7.85;61.19;102738.88;5016355;28;45536;-85
2022/01/11 04:04:40;;;;;;;;;23.25;21.50;;;;;7.87;61.47;102740.63;5032650;28;47178;-85
2022/01/11 04:07:06;;;;;;;;;28.25;25.25;;;;;7.86;60.86;102732.66;5017365;28;45599;-84
2022/01/11 04:09:31;;;;;;;;;25.00;24.00;;;;;7.83;61.26;102722.94;5016747;28;45474;-85
2022/01/11 04:11:57;;;;;;;;;27.25;22.25;;;;;7.68;61.56;102699.03;5017329;28;45704;-85
2022/01/11 04:14:25;;;;;;;;;28.50;25.25;;;;;7.83;60.99;102722.94;5015737;28;48263;-85
2022/01/11 04:16:52;;;;;;;;;22.00;22.00;;;;;7.47;60.98;102653.06;5016724;28;45520;-85
2022/01/11 04:19:17;;;;;;;;;27.75;25.25;;;;;7.40;60.99;102651.28;5015676;28;45388;-85
2022/01/11 04:21:43;;;;;;;;;25.00;25.00;;;;;7.48;60.79;102684.00;5017802;28;45462;-85
2022/01/11 04:24:11;;;;;;;;;28.67;24.33;;;;;7.63;60.69;102717.59;5016823;28;45403;-85
2022/01/11 04:26:37;;;;;;;;;19.33;19.00;;;;;7.60;61.05;102720.28;5016870;28;45419;-85
2022/01/11 04:29:02;;;;;;;;;24.33;21.33;;;;;7.48;60.78;102702.56;5016661;28;45518;-85
2022/01/11 04:31:28;;;;;;;;;26.33;23.67;;;;;7.32;60.84;102676.91;5016802;28;45606;-85
2022/01/11 04:33:53;;;;;;;;;23.00;23.00;;;;;7.45;60.97;102699.06;5015462;28;47823;-85
2022/01/11 04:36:18;;;;;;;;;23.33;20.33;;;;;7.64;61.32;102742.41;5015244;28;45817;-85
2022/01/11 04:38:44;;;;;;;;;32.00;22.33;;;;;7.25;61.22;102676.03;5016271;28;45412;-85
2022/01/11 04:41:09;;;;;;;;;27.00;20.67;;;;;7.15;61.36;102656.56;5015413;28;45658;-85
2022/01/11 04:43:35;;;;;;;;;23.67;23.67;;;;;6.76;60.79;102580.50;5014466;28;48148;-85
2022/01/11 04:46:00;;;;;;;;;30.67;25.67;;;;;7.37;61.37;102715.84;5015857;28;45421;-85
2022/01/11 04:48:26;;;;;;;;;29.75;24.50;;;;;7.26;61.71;102696.38;5015333;28;45581;-85
2022/01/11 04:50:53;;;;;;;;;26.67;23.67;;;;;7.22;61.72;102693.72;5016813;28;45474;-85
2022/01/11 04:53:18;;;;;;;;;23.00;21.67;;;;;7.02;61.53;102672.44;5015083;28;48341;-85
2022/01/11 04:55:43;;;;;;;;;27.67;24.67;;;;;7.01;61.43;102660.09;5015193;28;45922;-84
2022/01/11 04:58:09;;;;;;;;;25.33;23.00;;;;;7.61;61.38;102761.88;5016424;28;45519;-85
2022/01/11 05:00:35;;;;;;;;;29.00;25.00;;;;;7.40;61.55;102720.28;5016575;28;45359;-85
2022/01/11 05:03:00;;;;;;;;;25.33;20.33;;;;;7.44;61.05;102724.66;5016910;28;45466;-85
2022/01/11 05:05:29;;;;;;;;;29.67;26.00;;;;;7.55;61.25;102753.88;5016826;28;45863;-85
2022/01/11 05:07:55;;;;;;;;;26.00;24.33;;;;;7.35;61.34;102719.34;5016795;28;45411;-85
2022/01/11 05:10:21;;;;;;;;;26.00;24.00;;;;;7.32;61.05;102719.34;5015663;28;45388;-85
2022/01/11 05:12:46;;;;;;;;;27.25;24.75;;;;;6.98;61.33;102653.91;5016176;28;46288;-85
2022/01/11 05:15:14;;;;;;;;;29.50;23.00;;;;;7.35;61.17;102728.22;5016224;28;45246;-85
2022/01/11 05:17:41;;;;;;;;;32.75;27.75;;;;;7.09;60.87;102679.53;5015263;28;45583;-85
2022/01/11 05:20:07;;;;;;;;;29.33;25.00;;;;;7.61;61.22;102768.06;5016711;28;45365;-85
2022/01/11 05:22:33;;;;;;;;;34.25;32.00;;;;;7.18;61.23;102698.13;5016346;28;46570;-85
2022/01/11 05:24:59;;;;;;;;;34.25;27.25;;;;;7.04;61.09;102676.00;5016745;28;45178;-85
2022/01/11 05:27:24;;;;;;;;;28.67;25.00;;;;;7.26;60.98;102709.63;5016506;28;45264;-85
2022/01/11 05:29:50;;;;;;;;;29.25;25.00;;;;;7.34;60.98;102729.09;5015461;28;45583;-85
2022/01/11 05:32:15;;;;;;;;;29.00;23.75;;;;;7.60;61.01;102776.00;5015184;28;48138;-85
2022/01/11 05:34:41;;;;;;;;;30.00;22.75;;;;;7.49;60.83;102760.09;5016399;28;45510;-85
2022/01/11 05:37:06;;;;;;;;;25.50;25.50;;;;;7.27;61.18;102724.66;5016993;28;45519;-85
2022/01/11 05:39:31;;;;;;;;;30.00;23.00;;;;;7.51;61.04;102755.63;5016789;28;45241;-85
2022/01/11 05:41:59;;;;;;;;;26.00;23.25;;;;;7.50;60.67;102755.66;5015822;28;45620;-85
2022/01/11 05:44:24;;;;;;;;;29.00;26.50;;;;;7.60;60.59;102784.84;5015265;28;45479;-85
2022/01/11 05:46:50;;;;;;;;;25.33;22.67;;;;;7.34;60.76;102744.13;5016195;28;45795;-85
2022/01/11 05:49:15;;;;;;;;;27.25;25.25;;;;;7.53;60.45;102779.53;5016776;28;45865;-85
2022/01/11 05:51:40;;;;;;;;;31.25;27.25;;;;;7.60;60.74;102794.56;5015719;28;45412;-85
2022/01/11 05:54:06;;;;;;;;;29.25;24.75;;;;;7.48;60.54;102784.81;5016126;28;45491;-85
2022/01/11 05:56:31;;;;;;;;;29.50;27.25;;;;;7.53;60.12;102798.97;5017206;28;45952;-85
2022/01/11 05:58:57;;;;;;;;;33.75;28.75;;;;;6.69;60.54;102667.06;5019769;28;45529;-85
2022/01/11 06:01:23;;;;;;;;;28.75;26.75;;;;;7.17;60.75;102734.38;5017871;28;45608;-85
2022/01/11 06:03:49;;;;;;;;;35.00;28.75;;;;;7.24;60.59;102760.91;5017914;28;46015;-85
2022/01/11 06:06:14;;;;;;;;;26.25;26.25;;;;;6.97;60.32;102728.97;5017973;28;45385;-85
2022/01/11 06:08:40;;;;;;;;;32.75;26.50;;;;;7.18;60.22;102786.50;5018322;28;45472;-85
2022/01/11 06:11:06;;;;;;;;;30.00;27.75;;;;;7.13;60.53;102772.34;5019647;28;45519;-85
2022/01/11 06:13:32;;;;;;;;;31.75;26.50;;;;;6.44;60.61;102663.44;5018979;28;45245;-85
2022/01/11 06:15:57;;;;;;;;;31.50;27.25;;;;;7.33;60.56;102821.94;5018049;28;45461;-86
2022/01/11 06:18:22;;;;;;;;;28.75;24.50;;;;;6.75;60.82;102725.38;5018210;28;45554;-85
2022/01/11 06:20:48;;;;;;;;;33.75;26.25;;;;;7.15;61.20;102809.50;5009061;28;47494;-86
2022/01/11 06:23:13;;;;;;;;;35.50;32.75;;;;;6.96;60.77;102767.00;5018849;28;45340;-85
2022/01/11 06:25:38;;;;;;;;;38.75;31.75;;;;;7.23;60.90;102834.25;5018235;28;45332;-86
2022/01/11 06:28:04;;;;;;;;;29.25;26.25;;;;;7.18;60.75;102814.78;5015403;28;45467;-84
2022/01/11 06:30:30;;;;;;;;;32.25;29.50;;;;;7.32;60.47;102842.25;5010050;28;45804;-84
2022/01/11 06:32:56;;;;;;;;;32.25;27.75;;;;;6.68;60.48;102733.31;5010049;28;45881;-85
2022/01/11 06:35:23;;;;;;;;;31.50;27.25;;;;;7.30;60.32;102838.69;5013529;28;45726;-85
2022/01/11 06:37:48;;;;;;;;;31.25;26.75;;;;;7.34;60.57;102842.28;5017226;28;45413;-86
2022/01/11 06:40:16;;;;;;;;;34.25;30.50;;;;;6.53;60.50;102713.81;5017025;28;47574;-85
2022/01/11 06:42:42;;;;;;;;;34.50;30.00;;;;;7.34;60.19;102836.97;5017642;28;45542;-85
2022/01/11 06:45:08;;;;;;;;;30.50;26.00;;;;;7.07;60.52;102804.16;5017464;28;45475;-86
2022/01/11 06:47:33;;;;;;;;;35.50;32.00;;;;;6.74;60.00;102757.16;5018455;28;45589;-85
2022/01/11 06:49:59;;;;;;;;;35.75;30.50;;;;;6.83;60.17;102785.47;5016123;28;47400;-85
2022/01/11 06:52:24;;;;;;;;;37.00;27.75;;;;;6.95;60.26;102805.00;5018374;28;45522;-85
2022/01/11 06:54:49;;;;;;;;;33.50;29.00;;;;;6.67;60.01;102755.38;5016582;28;45697;-85
2022/01/11 06:57:15;;;;;;;;;32.00;28.25;;;;;6.88;60.31;102789.94;5016582;28;45579;-85
2022/01/11 06:59:40;;;;;;;;;33.00;28.25;;;;;6.88;59.72;102802.28;5014871;28;48108;-86
2022/01/11 07:02:07;;;;;;;;;34.50;29.00;;;;;6.47;59.84;102727.03;5010522;28;45632;-86
2022/01/11 07:04:33;;;;;;;;;35.75;33.00;;;;;6.68;59.78;102765.09;5017608;28;45506;-86
2022/01/11 07:06:58;;;;;;;;;32.00;27.00;;;;;7.02;60.04;102832.41;5017596;28;45584;-86
2022/01/11 07:09:24;;;;;;;;;28.50;27.50;;;;;6.42;59.90;102719.94;5017622;28;46236;-86
2022/01/11 07:11:50;;;;;;;;;32.00;25.50;;;;;6.43;60.19;102725.22;5014962;28;45597;-86
2022/01/11 07:14:15;;;;;;;;;35.50;31.25;;;;;6.69;60.37;102772.16;5016395;28;45641;-86
2022/01/11 07:16:43;;;;;;;;;33.50;31.75;;;;;6.91;59.94;102800.56;5018198;28;45592;-86
2022/01/11 07:19:09;;;;;;;;;26.50;26.25;;;;;7.18;59.82;102850.16;5018017;28;46524;-86
2022/01/11 07:21:34;;;;;;;;;34.25;29.75;;;;;6.72;60.23;102769.56;5015967;28;45957;-85
2022/01/11 07:24:00;;;;;;;;;38.00;33.00;;;;;7.28;59.67;102863.44;5016863;28;45316;-85
2022/01/11 07:26:26;;;;;;;;;29.50;26.25;;;;;6.98;59.94;102818.25;5016367;28;45421;-86
2022/01/11 07:28:51;;;;;;;;;30.25;29.25;;;;;6.83;59.56;102786.38;5017009;28;46430;-86
2022/01/11 07:31:27;;;;;;;;;34.75;29.00;;;;;6.96;59.39;102817.38;5019086;28;45585;-95
2022/01/11 07:33:52;;;;;;;;;33.25;31.50;;;;;6.72;59.21;102782.81;5023749;28;45511;-96
2022/01/11 07:36:18;;;;;;;;;38.50;33.25;;;;;5.69;59.34;102636.53;5020661;28;45611;-96
2022/01/11 07:38:51;;;;;;;;;30.25;28.75;;;;;6.72;59.45;102807.53;5018545;28;47252;-96
2022/01/11 07:41:36;;;;;;;;;38.75;29.75;;;;;6.98;59.38;102863.31;5017631;28;45433;-94
2022/01/11 07:44:02;;;;;;;;;33.75;26.00;;;;;7.03;59.72;102852.75;5017859;28;45475;-91
2022/01/11 07:46:27;;;;;;;;;30.00;27.25;;;;;7.04;59.34;102857.16;5019168;28;45398;-93
2022/01/11 07:48:53;;;;;;;;;32.75;29.75;;;;;6.52;67.25;102761.47;5016859;28;47013;-88
2022/01/11 07:51:18;;;;;;;;;35.25;29.00;;;;;6.67;59.89;102795.13;5017672;28;45269;-87
2022/01/11 07:53:43;;;;;;;;;40.00;33.00;;;;;6.85;59.91;102853.53;5017693;28;45321;-87
2022/01/11 07:56:09;;;;;;;;;35.00;31.50;;;;;6.69;59.92;102835.75;5017848;28;45153;-88
2022/01/11 07:58:35;;;;;;;;;33.00;25.00;;;;;6.93;59.87;102875.69;5017006;28;45435;-84
2022/01/11 08:01:01;;;;;;;;;36.00;32.75;;;;;6.75;59.96;102857.88;5017105;28;45409;-88
2022/01/11 08:03:26;;;;;;;;;58.50;48.00;;;;;6.64;59.74;102819.84;5017561;28;45356;-89
2022/01/11 08:05:53;;;;;;;;;30.25;27.50;;;;;6.36;59.35;102763.16;5016673;28;45282;-87
2022/01/11 08:08:18;;;;;;;;;43.00;32.75;;;;;6.75;59.24;102822.56;5002265;28;47029;-87
2022/01/11 08:10:44;;;;;;;;;38.50;33.00;;;;;7.05;58.61;102880.16;5017095;28;45492;-86
2022/01/11 08:13:10;;;;;;;;;48.50;37.75;;;;;7.04;59.29;102875.72;5017810;28;45323;-87
2022/01/11 08:15:37;;;;;;;;;37.50;34.25;;;;;6.91;58.63;102858.88;5016315;28;45388;-87
2022/01/11 08:18:04;;;;;;;;;36.25;32.75;;;;;6.98;58.78;102860.69;5017194;28;45545;-87
2022/01/11 08:20:29;;;;;;;;;32.50;29.25;;;;;7.34;58.87;102929.81;5016427;28;45475;-86
2022/01/11 08:22:56;;;;;;;;;42.00;33.00;;;;;7.05;58.95;102890.75;5016936;28;45364;-86
2022/01/11 08:25:22;;;;;;;;;39.00;33.00;;;;;7.28;59.12;102940.38;5017056;28;45691;-87
2022/01/11 08:27:47;;;;;;;;;41.00;35.25;;;;;7.19;58.74;102934.16;5015635;28;47333;-87
2022/01/11 08:30:13;;;;;;;;;38.25;34.50;;;;;7.09;58.77;102932.31;5015930;28;45551;-87
2022/01/11 08:32:39;;;;;;;;;36.50;32.75;;;;;7.26;59.00;102960.69;5017214;28;45587;-88
2022/01/11 08:35:05;;;;;;;;;44.25;34.25;;;;;7.06;58.78;102928.78;5017086;28;45637;-86
2022/01/11 08:37:30;;;;;;;;;36.50;33.50;;;;;7.21;59.14;102960.69;5011158;28;46705;-86
2022/01/11 08:39:56;;;;;;;;;34.50;32.00;;;;;6.94;58.95;102914.56;5013580;28;45462;-86
2022/01/11 08:42:22;;;;;;;;;43.25;35.50;;;;;7.30;58.66;102958.06;5013005;28;45508;-89
2022/01/11 08:44:49;;;;;;;;;45.00;36.00;;;;;7.12;58.98;102921.75;5012785;28;45455;-87
2022/01/11 08:47:16;;;;;;;;;36.00;34.25;;;;;7.42;58.59;102966.97;5014090;28;46609;-88
2022/01/11 08:49:41;;;;;;;;;39.75;35.00;;;;;6.80;58.37;102857.03;5012443;28;45380;-85
2022/01/11 08:52:07;;;;;;;;;41.25;34.50;;;;;6.62;58.15;102821.59;5012261;28;45423;-86
2022/01/11 08:54:32;;;;;;;;;40.75;35.75;;;;;6.38;58.42;102772.00;5013039;28;45657;-85
2022/01/11 08:57:00;;;;;;;;;41.75;35.75;;;;;7.49;58.39;102950.22;5013650;28;46474;-84
2022/01/11 08:59:26;;;;;;;;;46.75;36.75;;;;;7.04;57.94;102872.19;5013045;28;45371;-86
2022/01/11 09:01:55;;;;;;;;;44.00;38.00;;;;;7.53;57.84;102957.31;5009320;28;45613;-83
2022/01/11 09:04:21;;;;;;;;;43.50;34.50;;;;;7.50;58.11;102955.53;5012155;28;45570;-83
2022/01/11 09:06:47;;;;;;;;;38.25;34.00;;;;;7.52;58.21;102953.78;5015155;28;45351;-83
2022/01/11 09:09:13;;;;;;;;;43.25;36.00;;;;;7.55;58.15;102952.91;5014125;28;45264;-82
2022/01/11 09:11:38;;;;;;;;;41.75;32.00;;;;;7.37;57.96;102928.06;5013656;28;45343;-83
2022/01/11 09:14:04;;;;;;;;;39.75;32.75;;;;;7.18;58.17;102892.59;5015241;28;45530;-83
2022/01/11 09:16:29;;;;;;;;;40.25;36.00;;;;;7.60;58.07;102960.00;5012445;28;46129;-80
2022/01/11 09:18:54;;;;;;;;;48.50;37.50;;;;;7.65;58.34;102962.66;5014466;28;45826;-85
2022/01/11 09:21:22;;;;;;;;;43.25;36.50;;;;;7.43;57.81;102916.59;5015357;28;45759;-87
2022/01/11 09:23:48;;;;;;;;;44.00;36.25;;;;;7.55;57.70;102931.66;5013877;28;45515;-86
2022/01/11 09:26:13;;;;;;;;;39.75;34.25;;;;;7.16;57.69;102870.50;5014099;28;48358;-86
2022/01/11 09:28:39;;;;;;;;;42.25;36.25;;;;;7.73;57.67;102971.56;5015620;28;45372;-86
2022/01/11 09:31:05;;;;;;;;;42.75;36.00;;;;;7.66;57.90;102977.72;5015518;28;45621;-85
2022/01/11 09:33:32;;;;;;;;;45.50;37.00;;;;;7.27;58.02;102926.22;5019506;28;45561;-87
2022/01/11 09:35:58;;;;;;;;;44.25;36.75;;;;;7.43;58.01;102961.69;5016444;28;47588;-83
2022/01/11 09:38:24;;;;;;;;;42.50;35.00;;;;;7.22;58.45;102930.63;5018507;28;45739;-85
2022/01/11 09:40:52;;;;;;;;;39.25;35.00;;;;;7.11;58.24;102922.59;5018300;28;45402;-79
2022/01/11 09:43:21;;;;;;;;;45.50;37.00;;;;;7.17;58.50;102933.25;5019140;28;45472;-79
2022/01/11 09:45:48;;;;;;;;;44.25;35.75;;;;;7.32;58.43;102966.94;5017028;28;47992;-79
2022/01/11 09:48:13;;;;;;;;;43.50;35.75;;;;;7.33;59.49;102971.38;5018445;28;45428;-79
2022/01/11 09:50:39;;;;;;;;;64.75;52.25;;;;;7.38;58.66;102979.34;5017764;28;45502;-79
2022/01/11 09:53:04;;;;;;;;;50.00;38.75;;;;;7.17;58.93;102933.25;5018042;28;45503;-82
2022/01/11 09:55:30;;;;;;;;;48.00;37.50;;;;;7.40;58.17;102956.38;5017149;28;48276;-84
2022/01/11 09:57:56;;;;;;;;;48.75;39.25;;;;;7.64;58.21;102987.44;5017477;28;45444;-85
2022/01/11 10:00:21;;;;;;;;;45.25;35.75;;;;;7.65;58.05;102983.91;5017858;28;45462;-85
2022/01/11 10:02:47;;;;;;;;;47.50;38.00;;;;;7.28;57.75;102913.84;5014469;28;45691;-83
2022/01/11 10:05:14;;;;;;;;;43.50;35.00;;;;;7.42;57.60;102935.13;5017445;28;45566;-83
2022/01/11 10:07:42;;;;;;;;;50.50;39.25;;;;;7.75;57.56;103000.75;5016185;28;45854;-84
2022/01/11 10:10:18;;;;;;;;;47.75;35.25;;;;;7.32;57.67;102924.47;5017436;28;45352;-83
2022/01/11 10:12:49;;;;;;;;;46.25;36.00;;;;;7.35;57.47;102920.94;5017530;28;45530;-83
2022/01/11 10:15:15;;;;;;;;;45.25;36.25;;;;;7.85;57.41;103010.53;5016580;28;46535;-83
2022/01/11 10:17:43;;;;;;;;;51.25;39.50;;;;;7.55;57.13;102958.22;5018329;28;45359;-84
2022/01/11 10:20:20;;;;;;;;;50.75;37.75;;;;;7.68;57.27;102986.59;5009593;28;45570;-83
2022/01/11 10:22:52;;;;;;;;;50.50;39.00;;;;;7.45;57.11;102949.31;5018449;28;45312;-84
2022/01/11 10:25:18;;;;;;;;;40.50;33.25;;;;;7.61;56.85;102953.81;5014370;28;45973;-85
2022/01/11 10:27:52;;;;;;;;;48.75;38.75;;;;;7.67;57.27;102970.66;5017772;28;45463;-85
2022/01/11 10:30:20;;;;;;;;;53.75;41.00;;;;;7.66;57.24;102971.53;5018114;28;45435;-83
2022/01/11 10:32:48;;;;;;;;;48.25;38.25;;;;;7.93;56.92;103019.41;5017159;28;45521;-82
2022/01/11 10:35:24;;;;;;;;;46.75;39.25;;;;;7.92;56.85;103027.41;5016419;28;46371;-83
2022/01/11 10:37:55;;;;;;;;;49.75;40.00;;;;;6.90;56.54;102858.84;5017673;28;45373;-84
2022/01/11 10:40:54;;;;;;;;;44.00;35.50;;;;;7.14;56.74;102908.47;5016182;28;45476;-84
2022/01/11 10:43:22;;;;;;;;;52.25;39.75;;;;;7.71;56.43;103001.63;4999373;28;45529;-82
2022/01/11 10:45:50;;;;;;;;;51.75;42.50;;;;;7.35;56.96;102931.56;5013669;28;46191;-83
2022/01/11 10:48:23;;;;;;;;;55.00;44.00;;;;;7.79;56.92;103003.41;5017212;28;45451;-82
2022/01/11 10:50:56;;;;;;;;;49.75;40.75;;;;;7.89;57.25;103025.63;5014791;28;45679;-82
2022/01/11 10:53:24;;;;;;;;;69.50;54.25;;;;;7.85;57.00;103009.66;5010340;28;45336;-82
2022/01/11 10:55:56;;;;;;;;;67.75;51.50;;;;;7.40;56.69;102929.84;5017446;28;46438;-82
2022/01/11 10:58:22;;;;;;;;;46.75;38.00;;;;;7.62;56.57;102952.03;5015776;28;45412;-81
2022/01/11 11:00:50;;;;;;;;;53.00;40.50;;;;;7.63;56.60;102947.63;5015591;28;45469;-82
2022/01/11 11:03:20;;;;;;;;;55.75;44.50;;;;;8.22;56.35;103023.97;5015093;28;45635;-82
2022/01/11 11:05:49;;;;;;;;;59.25;45.00;;;;;8.37;56.77;103028.41;5016392;28;45501;-84
2022/01/11 11:08:20;;;;;;;;;51.25;40.25;;;;;7.74;56.03;102900.78;5013110;28;45444;-86
2022/01/11 11:10:55;;;;;;;;;48.75;38.25;;;;;8.64;55.88;103025.84;5016314;28;45702;-83
2022/01/11 11:13:26;;;;;;;;;55.50;42.75;;;;;8.77;55.84;103026.72;5015132;28;45496;-84
2022/01/11 11:15:57;;;;;;;;;49.75;39.25;;;;;8.43;55.51;102954.94;5010033;28;45621;-84
2022/01/11 11:18:31;;;;;;;;;49.50;39.75;;;;;8.94;55.87;103028.50;5014158;28;45478;-85
2022/01/11 11:21:33;;;;;;;;;51.50;40.00;;;;;8.50;55.26;102937.25;5002580;28;45490;-85